sensor_id;sensor_type;location;lat;lon;timestamp;temperature;humidity
12460;DHT22;6295;49.452;8.466;2023-04-29T04:14:44;11.30;99.90
12460;DHT22;6295;49.452;8.466;2023-04-29T04:18:46;11.30;99.90
12460;DHT22;6295;49.452;8.466;2023-04-29T04:22:49;11.30;99.90
12460;DHT22;6295;49.452;8.466;2023-04-29T04:30:54;11.40;99.90
12460;DHT22;6295;49.452;8.466;2023-04-29T04:38:59;11.40;99.90
12460;DHT22;6295;49.452;8.466;2023-04-29T04:43:01;11.50;99.90
12460;DHT22;6295;49.452;8.466;2023-04-29T04:47:05;11.50;99.90
12460;DHT22;6295;49.452;8.466;2023-04-29T04:51:07;11.50;99.90
12460;DHT22;6295;49.452;8.466;2023-04-29T05:07:18;11.60;99.90
12460;DHT22;6295;49.452;8.466;2023-04-29T05:11:21;11.70;99.90
12460;DHT22;6295;49.452;8.466;2023-04-29T05:15:23;11.70;99.90
12460;DHT22;6295;49.452;8.466;2023-04-29T05:19:28;11.80;99.90
12460;DHT22;6295;49.452;8.466;2023-04-29T05:27:32;11.80;99.90
12460;DHT22;6295;49.452;8.466;2023-04-29T05:31:34;11.90;99.90
12460;DHT22;6295;49.452;8.466;2023-04-29T05:35:38;11.90;99.90
12460;DHT22;6295;49.452;8.466;2023-04-29T05:39:40;11.90;99.90
12460;DHT22;6295;49.452;8.466;2023-04-29T05:43:42;12.00;99.90
12460;DHT22;6295;49.452;8.466;2023-04-29T05:47:44;12.00;99.90
12460;DHT22;6295;49.452;8.466;2023-04-29T05:51:48;12.00;99.90
12460;DHT22;6295;49.452;8.466;2023-04-29T06:07:58;12.10;99.90
12460;DHT22;6295;49.452;8.466;2023-04-29T06:12:00;12.20;99.90
12460;DHT22;6295;49.452;8.466;2023-04-29T06:20:06;12.20;99.90
12460;DHT22;6295;49.452;8.466;2023-04-29T06:24:10;12.30;99.90
12460;DHT22;6295;49.452;8.466;2023-04-29T06:28:12;12.20;99.90
12460;DHT22;6295;49.452;8.466;2023-04-29T06:36:34;12.30;99.90
12460;DHT22;6295;49.452;8.466;2023-04-29T06:40:37;12.40;99.90
12460;DHT22;6295;49.452;8.466;2023-04-29T06:44:39;12.40;99.90
12460;DHT22;6295;49.452;8.466;2023-04-29T06:52:44;12.40;99.90
12460;DHT22;6295;49.452;8.466;2023-04-29T06:56:47;12.40;99.90
12460;DHT22;6295;49.452;8.466;2023-04-29T07:00:50;12.40;99.90
12460;DHT22;6295;49.452;8.466;2023-04-29T07:04:52;12.40;99.90
12460;DHT22;6295;49.452;8.466;2023-04-29T07:12:58;12.30;99.90
12460;DHT22;6295;49.452;8.466;2023-04-29T07:21:03;12.30;99.90
12460;DHT22;6295;49.452;8.466;2023-04-29T07:25:06;12.20;99.90
12460;DHT22;6295;49.452;8.466;2023-04-29T07:29:09;12.20;99.90
12460;DHT22;6295;49.452;8.466;2023-04-29T07:33:11;12.20;99.90
12460;DHT22;6295;49.452;8.466;2023-04-29T07:37:16;12.20;99.90
12460;DHT22;6295;49.452;8.466;2023-04-29T07:41:22;12.20;99.90
12460;DHT22;6295;49.452;8.466;2023-04-29T07:45:26;12.20;99.90
12460;DHT22;6295;49.452;8.466;2023-04-29T07:49:28;12.20;99.90
12460;DHT22;6295;49.452;8.466;2023-04-29T07:53:30;12.20;99.90
12460;DHT22;6295;49.452;8.466;2023-04-29T07:57:32;12.30;99.90
12460;DHT22;6295;49.452;8.466;2023-04-29T08:01:36;12.30;99.90
12460;DHT22;6295;49.452;8.466;2023-04-29T08:05:38;12.20;99.90
12460;DHT22;6295;49.452;8.466;2023-04-29T08:09:40;12.30;99.90
12460;DHT22;6295;49.452;8.466;2023-04-29T08:13:42;12.30;99.90
12460;DHT22;6295;49.452;8.466;2023-04-29T08:17:46;12.30;99.90
12460;DHT22;6295;49.452;8.466;2023-04-29T08:21:48;12.30;99.90
12460;DHT22;6295;49.452;8.466;2023-04-29T08:25:51;12.30;99.90
12460;DHT22;6295;49.452;8.466;2023-04-29T08:29:55;12.30;99.90
12460;DHT22;6295;49.452;8.466;2023-04-29T08:33:58;12.40;99.90
12460;DHT22;6295;49.452;8.466;2023-04-29T08:38:01;12.30;99.90
12460;DHT22;6295;49.452;8.466;2023-04-29T08:42:07;12.40;99.90
12460;DHT22;6295;49.452;8.466;2023-04-29T08:46:16;12.40;99.90
12460;DHT22;6295;49.452;8.466;2023-04-29T08:50:25;12.40;99.90
12460;DHT22;6295;49.452;8.466;2023-04-29T08:54:30;12.40;99.90
12460;DHT22;6295;49.452;8.466;2023-04-29T08:58:33;12.40;99.90
12460;DHT22;6295;49.452;8.466;2023-04-29T09:06:44;12.50;99.90
12460;DHT22;6295;49.452;8.466;2023-04-29T09:10:47;12.40;99.90
12460;DHT22;6295;49.452;8.466;2023-04-29T09:14:49;12.50;99.90
12460;DHT22;6295;49.452;8.466;2023-04-29T09:18:51;12.40;99.90
12460;DHT22;6295;49.452;8.466;2023-04-29T09:22:57;12.50;99.90
12460;DHT22;6295;49.452;8.466;2023-04-29T09:31:02;12.50;99.90
12460;DHT22;6295;49.452;8.466;2023-04-29T09:35:21;12.60;99.90
12460;DHT22;6295;49.452;8.466;2023-04-29T09:39:25;12.60;99.90
12460;DHT22;6295;49.452;8.466;2023-04-29T09:47:30;12.70;99.90
12460;DHT22;6295;49.452;8.466;2023-04-29T09:51:34;12.80;99.90
12460;DHT22;6295;49.452;8.466;2023-04-29T09:55:59;12.90;99.90
12460;DHT22;6295;49.452;8.466;2023-04-29T10:04:05;12.90;99.90
12460;DHT22;6295;49.452;8.466;2023-04-29T10:08:08;12.90;99.90
12460;DHT22;6295;49.452;8.466;2023-04-29T10:12:15;13.00;99.90
12460;DHT22;6295;49.452;8.466;2023-04-29T10:16:27;13.00;99.90
12460;DHT22;6295;49.452;8.466;2023-04-29T10:20:30;13.00;99.90
12460;DHT22;6295;49.452;8.466;2023-04-29T10:24:36;13.10;99.90
12460;DHT22;6295;49.452;8.466;2023-04-29T10:28:42;13.10;99.90
12460;DHT22;6295;49.452;8.466;2023-04-29T10:32:50;13.30;99.90
12460;DHT22;6295;49.452;8.466;2023-04-29T10:40:57;13.60;99.90
12460;DHT22;6295;49.452;8.466;2023-04-29T10:45:24;13.90;99.90
12460;DHT22;6295;49.452;8.466;2023-04-29T10:49:33;14.00;99.90
12460;DHT22;6295;49.452;8.466;2023-04-29T10:53:35;14.10;99.90
12460;DHT22;6295;49.452;8.466;2023-04-29T10:57:57;14.10;99.90
12460;DHT22;6295;49.452;8.466;2023-04-29T11:02:01;14.20;99.90
12460;DHT22;6295;49.452;8.466;2023-04-29T11:06:08;14.20;99.90
12460;DHT22;6295;49.452;8.466;2023-04-29T11:10:13;14.20;99.90
12460;DHT22;6295;49.452;8.466;2023-04-29T11:26:30;13.90;99.90
12460;DHT22;6295;49.452;8.466;2023-04-29T11:30:33;13.90;99.90
12460;DHT22;6295;49.452;8.466;2023-04-29T11:42:44;13.70;99.90
12460;DHT22;6295;49.452;8.466;2023-04-29T11:46:46;13.70;99.90
12460;DHT22;6295;49.452;8.466;2023-04-29T11:50:52;13.80;99.90
12460;DHT22;6295;49.452;8.466;2023-04-29T11:54:54;13.70;99.90
12460;DHT22;6295;49.452;8.466;2023-04-29T11:58:58;13.80;99.90
12460;DHT22;6295;49.452;8.466;2023-04-29T12:03:07;13.90;99.90
12460;DHT22;6295;49.452;8.466;2023-04-29T12:11:19;14.10;99.90
12460;DHT22;6295;49.452;8.466;2023-04-29T12:19:29;14.30;99.90
12460;DHT22;6295;49.452;8.466;2023-04-29T12:23:35;14.30;99.90
12460;DHT22;6295;49.452;8.466;2023-04-29T12:27:39;14.40;99.90
12460;DHT22;6295;49.452;8.466;2023-04-29T12:31:46;14.40;99.90
12460;DHT22;6295;49.452;8.466;2023-04-29T12:35:48;14.40;99.90
12460;DHT22;6295;49.452;8.466;2023-04-29T12:39:54;14.30;99.90
12460;DHT22;6295;49.452;8.466;2023-04-29T12:43:58;14.30;99.90
12460;DHT22;6295;49.452;8.466;2023-04-29T12:48:01;14.30;99.90
12460;DHT22;6295;49.452;8.466;2023-04-29T12:56:11;14.30;99.90
12460;DHT22;6295;49.452;8.466;2023-04-29T13:00:13;14.30;99.90
12460;DHT22;6295;49.452;8.466;2023-04-29T13:04:16;14.40;99.90
12460;DHT22;6295;49.452;8.466;2023-04-29T13:12:22;14.50;99.90
12460;DHT22;6295;49.452;8.466;2023-04-29T13:16:24;14.50;99.90
12460;DHT22;6295;49.452;8.466;2023-04-29T13:20:26;14.60;99.90
12460;DHT22;6295;49.452;8.466;2023-04-29T13:28:34;14.50;99.90
12460;DHT22;6295;49.452;8.466;2023-04-29T13:32:36;14.50;99.90
12460;DHT22;6295;49.452;8.466;2023-04-29T13:36:39;14.50;99.90
12460;DHT22;6295;49.452;8.466;2023-04-29T13:40:41;14.50;99.90
12460;DHT22;6295;49.452;8.466;2023-04-29T13:48:48;14.40;99.90
12460;DHT22;6295;49.452;8.466;2023-04-29T13:52:50;14.30;99.90
12460;DHT22;6295;49.452;8.466;2023-04-29T13:56:52;14.30;99.90
12460;DHT22;6295;49.452;8.466;2023-04-29T14:00:56;14.30;99.90
12460;DHT22;6295;49.452;8.466;2023-04-29T14:09:01;14.20;99.90
12460;DHT22;6295;49.452;8.466;2023-04-29T14:13:03;14.20;99.90
12460;DHT22;6295;49.452;8.466;2023-04-29T14:17:10;14.20;99.90
12460;DHT22;6295;49.452;8.466;2023-04-29T14:21:16;14.20;99.90
12460;DHT22;6295;49.452;8.466;2023-04-29T14:25:22;14.30;99.90
12460;DHT22;6295;49.452;8.466;2023-04-29T14:29:24;14.30;99.90
12460;DHT22;6295;49.452;8.466;2023-04-29T14:33:27;14.80;99.90
12460;DHT22;6295;49.452;8.466;2023-04-29T14:37:29;14.30;99.90
12460;DHT22;6295;49.452;8.466;2023-04-29T14:41:31;14.40;99.90
12460;DHT22;6295;49.452;8.466;2023-04-29T14:45:34;14.40;99.90
12460;DHT22;6295;49.452;8.466;2023-04-29T14:49:38;14.40;99.90
12460;DHT22;6295;49.452;8.466;2023-04-29T14:53:40;14.40;99.90
12460;DHT22;6295;49.452;8.466;2023-04-29T14:57:45;14.40;99.90
12460;DHT22;6295;49.452;8.466;2023-04-29T15:01:47;14.50;99.90
12460;DHT22;6295;49.452;8.466;2023-04-29T15:05:51;14.70;99.90
12460;DHT22;6295;49.452;8.466;2023-04-29T15:13:55;15.20;99.90
12460;DHT22;6295;49.452;8.466;2023-04-29T15:17:57;15.40;99.90
12460;DHT22;6295;49.452;8.466;2023-04-29T15:22:01;15.60;99.90
12460;DHT22;6295;49.452;8.466;2023-04-29T15:26:03;15.70;99.90
12460;DHT22;6295;49.452;8.466;2023-04-29T15:30:07;15.70;99.90
12460;DHT22;6295;49.452;8.466;2023-04-29T15:34:09;15.60;99.90
12460;DHT22;6295;49.452;8.466;2023-04-29T15:38:13;15.50;99.90
12460;DHT22;6295;49.452;8.466;2023-04-29T15:42:15;15.40;99.90
12460;DHT22;6295;49.452;8.466;2023-04-29T15:46:17;15.30;99.90
12460;DHT22;6295;49.452;8.466;2023-04-29T15:50:20;15.20;99.90
12460;DHT22;6295;49.452;8.466;2023-04-29T15:54:28;15.20;99.90
12460;DHT22;6295;49.452;8.466;2023-04-29T15:58:32;15.10;99.90
12460;DHT22;6295;49.452;8.466;2023-04-29T16:02:34;15.10;99.90
12460;DHT22;6295;49.452;8.466;2023-04-29T16:10:40;14.90;99.90
12460;DHT22;6295;49.452;8.466;2023-04-29T16:14:42;14.90;99.90
12460;DHT22;6295;49.452;8.466;2023-04-29T16:22:47;14.90;99.90
12460;DHT22;6295;49.452;8.466;2023-04-29T16:26:53;14.90;99.90
12460;DHT22;6295;49.452;8.466;2023-04-29T16:39:12;14.80;99.90
12460;DHT22;6295;49.452;8.466;2023-04-29T16:43:17;14.80;99.90
12460;DHT22;6295;49.452;8.466;2023-04-29T16:47:19;14.80;99.90
12460;DHT22;6295;49.452;8.466;2023-04-29T16:51:23;14.80;99.90
12460;DHT22;6295;49.452;8.466;2023-04-29T16:55:26;14.70;99.90
12460;DHT22;6295;49.452;8.466;2023-04-29T16:59:29;14.70;99.90
12460;DHT22;6295;49.452;8.466;2023-04-29T17:03:31;14.60;99.90
12460;DHT22;6295;49.452;8.466;2023-04-29T17:07:33;14.60;99.90
12460;DHT22;6295;49.452;8.466;2023-04-29T17:11:36;14.50;99.90
12460;DHT22;6295;49.452;8.466;2023-04-29T17:15:39;14.50;99.90
12460;DHT22;6295;49.452;8.466;2023-04-29T17:19:41;14.50;99.90
12460;DHT22;6295;49.452;8.466;2023-04-29T17:23:43;14.50;99.90
12460;DHT22;6295;49.452;8.466;2023-04-29T17:27:45;14.40;99.90
12460;DHT22;6295;49.452;8.466;2023-04-29T17:35:59;14.30;99.90
12460;DHT22;6295;49.452;8.466;2023-04-29T17:40:02;14.30;99.90
12460;DHT22;6295;49.452;8.466;2023-04-29T17:44:05;14.30;99.90
12460;DHT22;6295;49.452;8.466;2023-04-29T17:48:09;14.30;99.90
12460;DHT22;6295;49.452;8.466;2023-04-29T17:52:11;14.30;99.90
12460;DHT22;6295;49.452;8.466;2023-04-29T17:56:15;14.20;99.90
